sensor_id;sensor_type;location;lat;lon;timestamp;P1;durP1;ratioP1;P2;durP2;ratioP2
36855;SDS011;22788;51.434;6.786;2023-05-19T00:01:43;4.63;;;2.28;;
36855;SDS011;22788;51.434;6.786;2023-05-19T00:04:09;5.15;;;2.85;;
36855;SDS011;22788;51.434;6.786;2023-05-19T00:06:35;5.05;;;2.58;;
36855;SDS011;22788;51.434;6.786;2023-05-19T00:09:03;8.40;;;2.78;;
36855;SDS011;22788;51.434;6.786;2023-05-19T00:11:29;5.15;;;2.53;;
36855;SDS011;22788;51.434;6.786;2023-05-19T00:13:56;3.80;;;2.30;;
36855;SDS011;22788;51.434;6.786;2023-05-19T00:16:23;3.72;;;2.53;;
36855;SDS011;22788;51.434;6.786;2023-05-19T00:18:50;4.50;;;2.47;;
36855;SDS011;22788;51.434;6.786;2023-05-19T00:21:15;5.22;;;2.90;;
36855;SDS011;22788;51.434;6.786;2023-05-19T00:23:41;6.53;;;2.70;;
36855;SDS011;22788;51.434;6.786;2023-05-19T00:26:09;4.20;;;2.67;;
36855;SDS011;22788;51.434;6.786;2023-05-19T00:28:34;6.05;;;2.67;;
36855;SDS011;22788;51.434;6.786;2023-05-19T00:31:00;5.65;;;2.53;;
36855;SDS011;22788;51.434;6.786;2023-05-19T00:33:26;5.65;;;2.92;;
36855;SDS011;22788;51.434;6.786;2023-05-19T00:35:52;3.72;;;2.35;;
36855;SDS011;22788;51.434;6.786;2023-05-19T00:38:17;2.92;;;2.30;;
36855;SDS011;22788;51.434;6.786;2023-05-19T00:40:43;4.40;;;2.60;;
36855;SDS011;22788;51.434;6.786;2023-05-19T00:43:11;4.50;;;2.75;;
36855;SDS011;22788;51.434;6.786;2023-05-19T00:45:36;2.45;;;2.25;;
36855;SDS011;22788;51.434;6.786;2023-05-19T00:48:02;6.63;;;2.60;;
36855;SDS011;22788;51.434;6.786;2023-05-19T00:50:28;3.20;;;2.58;;
36855;SDS011;22788;51.434;6.786;2023-05-19T00:52:54;4.80;;;2.70;;
36855;SDS011;22788;51.434;6.786;2023-05-19T00:55:20;6.53;;;3.30;;
36855;SDS011;22788;51.434;6.786;2023-05-19T00:57:47;4.05;;;2.60;;
36855;SDS011;22788;51.434;6.786;2023-05-19T01:00:15;4.88;;;2.58;;
36855;SDS011;22788;51.434;6.786;2023-05-19T01:02:41;2.70;;;2.22;;
36855;SDS011;22788;51.434;6.786;2023-05-19T01:05:07;4.38;;;2.80;;
36855;SDS011;22788;51.434;6.786;2023-05-19T01:07:33;4.07;;;2.50;;
36855;SDS011;22788;51.434;6.786;2023-05-19T01:09:59;3.63;;;2.47;;
36855;SDS011;22788;51.434;6.786;2023-05-19T01:12:25;4.90;;;2.70;;
36855;SDS011;22788;51.434;6.786;2023-05-19T01:14:51;5.32;;;2.60;;
36855;SDS011;22788;51.434;6.786;2023-05-19T01:17:20;5.47;;;2.30;;
36855;SDS011;22788;51.434;6.786;2023-05-19T01:19:55;4.80;;;2.53;;
36855;SDS011;22788;51.434;6.786;2023-05-19T01:22:31;7.20;;;2.78;;
36855;SDS011;22788;51.434;6.786;2023-05-19T01:25:25;3.85;;;2.40;;
36855;SDS011;22788;51.434;6.786;2023-05-19T01:28:06;3.03;;;2.58;;
36855;SDS011;22788;51.434;6.786;2023-05-19T01:30:55;4.40;;;2.95;;
36855;SDS011;22788;51.434;6.786;2023-05-19T01:33:23;3.60;;;2.53;;
36855;SDS011;22788;51.434;6.786;2023-05-19T01:35:50;5.35;;;2.90;;
36855;SDS011;22788;51.434;6.786;2023-05-19T01:38:18;2.80;;;1.98;;
36855;SDS011;22788;51.434;6.786;2023-05-19T01:40:45;4.53;;;2.58;;
36855;SDS011;22788;51.434;6.786;2023-05-19T01:43:13;5.85;;;2.70;;
36855;SDS011;22788;51.434;6.786;2023-05-19T01:45:41;4.35;;;2.65;;
36855;SDS011;22788;51.434;6.786;2023-05-19T01:48:09;5.70;;;2.45;;
36855;SDS011;22788;51.434;6.786;2023-05-19T01:50:36;5.57;;;2.50;;
36855;SDS011;22788;51.434;6.786;2023-05-19T01:53:01;3.65;;;2.40;;
36855;SDS011;22788;51.434;6.786;2023-05-19T01:55:27;5.60;;;3.10;;
36855;SDS011;22788;51.434;6.786;2023-05-19T01:57:55;3.28;;;2.58;;
36855;SDS011;22788;51.434;6.786;2023-05-19T02:00:29;3.70;;;2.53;;
36855;SDS011;22788;51.434;6.786;2023-05-19T02:03:05;4.65;;;2.92;;
36855;SDS011;22788;51.434;6.786;2023-05-19T02:05:39;4.97;;;2.75;;
36855;SDS011;22788;51.434;6.786;2023-05-19T02:08:18;3.55;;;2.38;;
36855;SDS011;22788;51.434;6.786;2023-05-19T02:10:50;4.85;;;2.35;;
36855;SDS011;22788;51.434;6.786;2023-05-19T02:13:21;5.07;;;2.65;;
36855;SDS011;22788;51.434;6.786;2023-05-19T02:15:52;3.80;;;2.40;;
36855;SDS011;22788;51.434;6.786;2023-05-19T02:18:25;3.75;;;2.45;;
36855;SDS011;22788;51.434;6.786;2023-05-19T02:20:51;5.03;;;2.78;;
36855;SDS011;22788;51.434;6.786;2023-05-19T02:23:16;7.07;;;3.00;;
36855;SDS011;22788;51.434;6.786;2023-05-19T02:25:42;4.72;;;2.58;;
36855;SDS011;22788;51.434;6.786;2023-05-19T02:28:10;4.05;;;2.33;;
36855;SDS011;22788;51.434;6.786;2023-05-19T02:30:36;4.65;;;2.63;;
36855;SDS011;22788;51.434;6.786;2023-05-19T02:33:01;5.63;;;2.85;;
36855;SDS011;22788;51.434;6.786;2023-05-19T02:35:28;4.68;;;2.58;;
36855;SDS011;22788;51.434;6.786;2023-05-19T02:37:54;3.53;;;2.50;;
36855;SDS011;22788;51.434;6.786;2023-05-19T02:40:20;6.10;;;2.90;;
36855;SDS011;22788;51.434;6.786;2023-05-19T02:42:45;4.72;;;2.60;;
36855;SDS011;22788;51.434;6.786;2023-05-19T02:45:11;6.80;;;2.92;;
36855;SDS011;22788;51.434;6.786;2023-05-19T02:47:37;4.47;;;2.53;;
36855;SDS011;22788;51.434;6.786;2023-05-19T02:50:03;3.60;;;2.20;;
36855;SDS011;22788;51.434;6.786;2023-05-19T02:52:30;3.95;;;2.38;;
36855;SDS011;22788;51.434;6.786;2023-05-19T02:54:56;5.63;;;2.97;;
36855;SDS011;22788;51.434;6.786;2023-05-19T02:57:21;4.30;;;2.53;;
36855;SDS011;22788;51.434;6.786;2023-05-19T02:59:47;6.03;;;3.05;;
36855;SDS011;22788;51.434;6.786;2023-05-19T03:02:12;2.53;;;2.17;;
36855;SDS011;22788;51.434;6.786;2023-05-19T03:04:38;6.25;;;2.53;;
36855;SDS011;22788;51.434;6.786;2023-05-19T03:07:04;5.57;;;2.92;;
36855;SDS011;22788;51.434;6.786;2023-05-19T03:09:30;3.72;;;2.85;;
36855;SDS011;22788;51.434;6.786;2023-05-19T03:11:56;3.75;;;2.80;;
36855;SDS011;22788;51.434;6.786;2023-05-19T03:14:22;6.45;;;2.72;;
36855;SDS011;22788;51.434;6.786;2023-05-19T03:16:47;7.18;;;3.40;;
36855;SDS011;22788;51.434;6.786;2023-05-19T03:19:13;4.93;;;2.60;;
36855;SDS011;22788;51.434;6.786;2023-05-19T03:21:38;4.47;;;3.08;;
36855;SDS011;22788;51.434;6.786;2023-05-19T03:24:04;5.95;;;2.70;;
36855;SDS011;22788;51.434;6.786;2023-05-19T03:26:32;3.58;;;2.80;;
36855;SDS011;22788;51.434;6.786;2023-05-19T03:28:57;2.85;;;2.40;;
36855;SDS011;22788;51.434;6.786;2023-05-19T03:31:23;5.05;;;2.72;;
36855;SDS011;22788;51.434;6.786;2023-05-19T03:33:49;3.97;;;3.15;;
36855;SDS011;22788;51.434;6.786;2023-05-19T03:36:14;5.25;;;3.20;;
36855;SDS011;22788;51.434;6.786;2023-05-19T03:38:40;5.50;;;3.28;;
36855;SDS011;22788;51.434;6.786;2023-05-19T03:41:05;5.20;;;2.92;;
36855;SDS011;22788;51.434;6.786;2023-05-19T03:43:32;5.75;;;2.97;;
36855;SDS011;22788;51.434;6.786;2023-05-19T03:45:58;4.30;;;2.83;;
36855;SDS011;22788;51.434;6.786;2023-05-19T03:48:24;5.68;;;3.00;;
36855;SDS011;22788;51.434;6.786;2023-05-19T03:50:49;6.85;;;3.17;;
36855;SDS011;22788;51.434;6.786;2023-05-19T03:53:15;4.47;;;3.05;;
36855;SDS011;22788;51.434;6.786;2023-05-19T03:55:40;4.90;;;3.10;;
36855;SDS011;22788;51.434;6.786;2023-05-19T03:58:06;4.80;;;3.28;;
36855;SDS011;22788;51.434;6.786;2023-05-19T04:00:33;3.63;;;3.30;;
36855;SDS011;22788;51.434;6.786;2023-05-19T04:02:59;6.72;;;3.15;;
36855;SDS011;22788;51.434;6.786;2023-05-19T04:05:24;5.15;;;2.67;;
36855;SDS011;22788;51.434;6.786;2023-05-19T04:07:50;7.00;;;3.67;;
36855;SDS011;22788;51.434;6.786;2023-05-19T04:10:16;8.25;;;2.47;;
36855;SDS011;22788;51.434;6.786;2023-05-19T04:12:42;4.75;;;3.10;;
36855;SDS011;22788;51.434;6.786;2023-05-19T04:15:08;5.95;;;3.13;;
36855;SDS011;22788;51.434;6.786;2023-05-19T04:17:35;5.88;;;3.33;;
36855;SDS011;22788;51.434;6.786;2023-05-19T04:20:01;5.60;;;2.88;;
36855;SDS011;22788;51.434;6.786;2023-05-19T04:22:27;5.60;;;2.58;;
36855;SDS011;22788;51.434;6.786;2023-05-19T04:24:52;6.13;;;3.33;;
36855;SDS011;22788;51.434;6.786;2023-05-19T04:27:18;7.20;;;3.25;;
36855;SDS011;22788;51.434;6.786;2023-05-19T04:29:44;6.65;;;3.35;;
36855;SDS011;22788;51.434;6.786;2023-05-19T04:32:09;5.95;;;3.22;;
36855;SDS011;22788;51.434;6.786;2023-05-19T04:34:36;8.40;;;2.90;;
36855;SDS011;22788;51.434;6.786;2023-05-19T04:37:02;4.93;;;3.03;;
36855;SDS011;22788;51.434;6.786;2023-05-19T04:39:28;5.85;;;3.22;;
36855;SDS011;22788;51.434;6.786;2023-05-19T04:41:53;5.85;;;3.42;;
36855;SDS011;22788;51.434;6.786;2023-05-19T04:44:22;9.68;;;3.33;;
36855;SDS011;22788;51.434;6.786;2023-05-19T04:46:47;4.47;;;2.95;;
36855;SDS011;22788;51.434;6.786;2023-05-19T04:49:13;3.20;;;2.85;;
36855;SDS011;22788;51.434;6.786;2023-05-19T04:51:40;3.90;;;2.80;;
36855;SDS011;22788;51.434;6.786;2023-05-19T04:54:06;3.97;;;3.00;;
36855;SDS011;22788;51.434;6.786;2023-05-19T04:56:31;5.72;;;3.30;;
36855;SDS011;22788;51.434;6.786;2023-05-19T04:58:57;4.88;;;2.85;;
36855;SDS011;22788;51.434;6.786;2023-05-19T05:01:22;4.15;;;2.92;;
36855;SDS011;22788;51.434;6.786;2023-05-19T05:03:48;5.90;;;3.00;;
36855;SDS011;22788;51.434;6.786;2023-05-19T05:06:14;5.22;;;2.97;;
36855;SDS011;22788;51.434;6.786;2023-05-19T05:08:41;3.65;;;2.80;;
36855;SDS011;22788;51.434;6.786;2023-05-19T05:11:06;5.93;;;3.10;;
36855;SDS011;22788;51.434;6.786;2023-05-19T05:13:33;4.40;;;3.10;;
36855;SDS011;22788;51.434;6.786;2023-05-19T05:15:59;4.60;;;3.33;;
36855;SDS011;22788;51.434;6.786;2023-05-19T05:18:25;5.70;;;3.17;;
36855;SDS011;22788;51.434;6.786;2023-05-19T05:20:51;7.20;;;3.30;;
36855;SDS011;22788;51.434;6.786;2023-05-19T05:23:17;5.97;;;2.97;;
36855;SDS011;22788;51.434;6.786;2023-05-19T05:25:45;3.45;;;2.90;;
36855;SDS011;22788;51.434;6.786;2023-05-19T05:28:11;6.32;;;3.38;;
36855;SDS011;22788;51.434;6.786;2023-05-19T05:30:37;5.97;;;3.05;;
36855;SDS011;22788;51.434;6.786;2023-05-19T05:33:03;4.18;;;2.70;;
36855;SDS011;22788;51.434;6.786;2023-05-19T05:35:31;4.38;;;3.17;;
36855;SDS011;22788;51.434;6.786;2023-05-19T05:37:57;4.55;;;3.17;;
36855;SDS011;22788;51.434;6.786;2023-05-19T05:40:23;4.40;;;3.10;;
36855;SDS011;22788;51.434;6.786;2023-05-19T05:42:50;4.40;;;3.00;;
36855;SDS011;22788;51.434;6.786;2023-05-19T05:45:15;7.13;;;3.50;;
36855;SDS011;22788;51.434;6.786;2023-05-19T05:47:41;8.38;;;3.17;;
36855;SDS011;22788;51.434;6.786;2023-05-19T05:50:08;5.53;;;3.10;;
36855;SDS011;22788;51.434;6.786;2023-05-19T05:52:35;11.90;;;5.78;;
36855;SDS011;22788;51.434;6.786;2023-05-19T05:55:01;7.40;;;3.65;;
36855;SDS011;22788;51.434;6.786;2023-05-19T05:57:28;4.53;;;3.17;;
36855;SDS011;22788;51.434;6.786;2023-05-19T05:59:55;8.43;;;3.30;;
36855;SDS011;22788;51.434;6.786;2023-05-19T06:02:21;4.45;;;2.95;;
36855;SDS011;22788;51.434;6.786;2023-05-19T06:04:46;5.78;;;3.03;;
36855;SDS011;22788;51.434;6.786;2023-05-19T06:07:12;4.72;;;3.10;;
36855;SDS011;22788;51.434;6.786;2023-05-19T06:09:38;4.07;;;2.97;;
36855;SDS011;22788;51.434;6.786;2023-05-19T06:12:04;5.90;;;3.20;;
36855;SDS011;22788;51.434;6.786;2023-05-19T06:14:29;7.00;;;3.50;;
36855;SDS011;22788;51.434;6.786;2023-05-19T06:16:56;6.43;;;3.35;;
36855;SDS011;22788;51.434;6.786;2023-05-19T06:19:22;6.72;;;2.95;;
36855;SDS011;22788;51.434;6.786;2023-05-19T06:21:47;3.90;;;2.75;;
36855;SDS011;22788;51.434;6.786;2023-05-19T06:24:13;9.20;;;3.35;;
36855;SDS011;22788;51.434;6.786;2023-05-19T06:26:39;8.90;;;3.15;;
36855;SDS011;22788;51.434;6.786;2023-05-19T06:29:04;4.10;;;3.03;;
36855;SDS011;22788;51.434;6.786;2023-05-19T06:31:30;7.05;;;3.50;;
36855;SDS011;22788;51.434;6.786;2023-05-19T06:33:57;6.13;;;2.63;;
36855;SDS011;22788;51.434;6.786;2023-05-19T06:36:22;5.30;;;3.22;;
36855;SDS011;22788;51.434;6.786;2023-05-19T06:38:48;7.75;;;3.42;;
36855;SDS011;22788;51.434;6.786;2023-05-19T06:41:14;5.30;;;3.08;;
36855;SDS011;22788;51.434;6.786;2023-05-19T06:43:39;5.82;;;3.20;;
36855;SDS011;22788;51.434;6.786;2023-05-19T06:46:06;5.30;;;2.92;;
36855;SDS011;22788;51.434;6.786;2023-05-19T06:48:31;6.80;;;3.75;;
36855;SDS011;22788;51.434;6.786;2023-05-19T06:50:58;6.05;;;3.33;;
36855;SDS011;22788;51.434;6.786;2023-05-19T06:53:24;7.18;;;3.70;;
36855;SDS011;22788;51.434;6.786;2023-05-19T06:55:50;3.95;;;3.00;;
36855;SDS011;22788;51.434;6.786;2023-05-19T06:58:15;4.68;;;3.00;;
36855;SDS011;22788;51.434;6.786;2023-05-19T07:00:41;8.32;;;3.65;;
36855;SDS011;22788;51.434;6.786;2023-05-19T07:03:07;4.45;;;2.63;;
36855;SDS011;22788;51.434;6.786;2023-05-19T07:05:32;4.88;;;2.95;;
36855;SDS011;22788;51.434;6.786;2023-05-19T07:07:59;7.35;;;3.80;;
36855;SDS011;22788;51.434;6.786;2023-05-19T07:10:25;4.32;;;3.00;;
36855;SDS011;22788;51.434;6.786;2023-05-19T07:12:51;4.13;;;2.65;;
36855;SDS011;22788;51.434;6.786;2023-05-19T07:15:17;7.45;;;2.90;;
36855;SDS011;22788;51.434;6.786;2023-05-19T07:17:42;4.65;;;3.05;;
36855;SDS011;22788;51.434;6.786;2023-05-19T07:20:08;6.63;;;2.90;;
36855;SDS011;22788;51.434;6.786;2023-05-19T07:22:34;4.10;;;2.80;;
36855;SDS011;22788;51.434;6.786;2023-05-19T07:25:01;5.38;;;2.72;;
36855;SDS011;22788;51.434;6.786;2023-05-19T07:27:27;3.65;;;2.35;;
36855;SDS011;22788;51.434;6.786;2023-05-19T07:29:53;5.85;;;2.70;;
36855;SDS011;22788;51.434;6.786;2023-05-19T07:32:18;4.28;;;3.00;;
36855;SDS011;22788;51.434;6.786;2023-05-19T07:34:44;4.90;;;2.63;;
36855;SDS011;22788;51.434;6.786;2023-05-19T07:37:10;3.95;;;2.60;;
36855;SDS011;22788;51.434;6.786;2023-05-19T07:39:35;6.75;;;3.10;;
36855;SDS011;22788;51.434;6.786;2023-05-19T07:42:02;4.07;;;2.67;;
36855;SDS011;22788;51.434;6.786;2023-05-19T07:44:28;6.10;;;2.58;;
36855;SDS011;22788;51.434;6.786;2023-05-19T07:46:54;6.13;;;3.40;;
36855;SDS011;22788;51.434;6.786;2023-05-19T07:49:19;4.18;;;3.00;;
36855;SDS011;22788;51.434;6.786;2023-05-19T07:51:45;5.60;;;2.55;;
36855;SDS011;22788;51.434;6.786;2023-05-19T07:54:11;4.93;;;2.67;;
36855;SDS011;22788;51.434;6.786;2023-05-19T07:56:36;4.82;;;2.63;;
36855;SDS011;22788;51.434;6.786;2023-05-19T07:59:03;2.83;;;2.63;;
36855;SDS011;22788;51.434;6.786;2023-05-19T08:01:29;5.07;;;2.53;;
36855;SDS011;22788;51.434;6.786;2023-05-19T08:03:55;6.15;;;2.40;;
36855;SDS011;22788;51.434;6.786;2023-05-19T08:06:21;5.38;;;2.35;;
36855;SDS011;22788;51.434;6.786;2023-05-19T08:08:46;5.88;;;2.45;;
36855;SDS011;22788;51.434;6.786;2023-05-19T08:11:12;9.23;;;2.90;;
36855;SDS011;22788;51.434;6.786;2023-05-19T08:13:38;4.57;;;2.58;;
36855;SDS011;22788;51.434;6.786;2023-05-19T08:16:05;5.70;;;2.80;;
36855;SDS011;22788;51.434;6.786;2023-05-19T08:18:31;4.55;;;2.60;;
36855;SDS011;22788;51.434;6.786;2023-05-19T08:20:56;4.22;;;2.40;;
36855;SDS011;22788;51.434;6.786;2023-05-19T08:23:22;6.28;;;2.50;;
36855;SDS011;22788;51.434;6.786;2023-05-19T08:25:47;7.07;;;2.97;;
36855;SDS011;22788;51.434;6.786;2023-05-19T08:28:13;4.93;;;2.33;;
36855;SDS011;22788;51.434;6.786;2023-05-19T08:30:39;5.03;;;2.13;;
36855;SDS011;22788;51.434;6.786;2023-05-19T08:33:06;3.70;;;2.42;;
36855;SDS011;22788;51.434;6.786;2023-05-19T08:35:31;3.85;;;2.25;;
36855;SDS011;22788;51.434;6.786;2023-05-19T08:37:57;4.78;;;2.60;;
36855;SDS011;22788;51.434;6.786;2023-05-19T08:40:22;4.43;;;2.20;;
36855;SDS011;22788;51.434;6.786;2023-05-19T08:42:49;4.00;;;2.13;;
36855;SDS011;22788;51.434;6.786;2023-05-19T08:45:14;4.28;;;2.40;;
36855;SDS011;22788;51.434;6.786;2023-05-19T08:47:40;6.35;;;2.47;;
36855;SDS011;22788;51.434;6.786;2023-05-19T08:50:09;7.80;;;2.72;;
36855;SDS011;22788;51.434;6.786;2023-05-19T08:52:41;4.00;;;2.05;;
36855;SDS011;22788;51.434;6.786;2023-05-19T08:55:14;5.53;;;2.28;;
36855;SDS011;22788;51.434;6.786;2023-05-19T08:57:49;7.38;;;2.25;;
36855;SDS011;22788;51.434;6.786;2023-05-19T09:00:14;5.22;;;2.42;;
36855;SDS011;22788;51.434;6.786;2023-05-19T09:02:41;6.13;;;2.38;;
36855;SDS011;22788;51.434;6.786;2023-05-19T09:05:09;7.65;;;2.70;;
36855;SDS011;22788;51.434;6.786;2023-05-19T09:07:35;5.75;;;2.20;;
36855;SDS011;22788;51.434;6.786;2023-05-19T09:10:01;5.15;;;2.15;;
36855;SDS011;22788;51.434;6.786;2023-05-19T09:12:26;4.25;;;1.90;;
36855;SDS011;22788;51.434;6.786;2023-05-19T09:14:52;7.40;;;2.03;;
36855;SDS011;22788;51.434;6.786;2023-05-19T09:17:18;12.68;;;2.40;;
36855;SDS011;22788;51.434;6.786;2023-05-19T09:19:43;3.53;;;2.42;;
36855;SDS011;22788;51.434;6.786;2023-05-19T09:22:10;4.43;;;2.00;;
36855;SDS011;22788;51.434;6.786;2023-05-19T09:24:39;4.30;;;1.98;;
36855;SDS011;22788;51.434;6.786;2023-05-19T09:27:05;3.67;;;2.45;;
36855;SDS011;22788;51.434;6.786;2023-05-19T09:29:31;13.07;;;2.47;;
36855;SDS011;22788;51.434;6.786;2023-05-19T09:31:57;5.07;;;2.92;;
36855;SDS011;22788;51.434;6.786;2023-05-19T09:34:22;5.95;;;2.13;;
36855;SDS011;22788;51.434;6.786;2023-05-19T09:36:48;4.03;;;2.22;;
36855;SDS011;22788;51.434;6.786;2023-05-19T09:39:15;4.15;;;1.92;;
36855;SDS011;22788;51.434;6.786;2023-05-19T09:41:41;6.50;;;2.13;;
36855;SDS011;22788;51.434;6.786;2023-05-19T09:44:11;4.63;;;1.83;;
36855;SDS011;22788;51.434;6.786;2023-05-19T09:46:36;6.22;;;2.08;;
36855;SDS011;22788;51.434;6.786;2023-05-19T09:49:07;4.32;;;2.10;;
36855;SDS011;22788;51.434;6.786;2023-05-19T09:51:33;4.55;;;2.40;;
36855;SDS011;22788;51.434;6.786;2023-05-19T09:53:59;3.92;;;2.00;;
36855;SDS011;22788;51.434;6.786;2023-05-19T09:56:26;5.80;;;2.40;;
36855;SDS011;22788;51.434;6.786;2023-05-19T09:58:58;6.97;;;2.50;;
36855;SDS011;22788;51.434;6.786;2023-05-19T10:01:23;2.92;;;2.10;;
36855;SDS011;22788;51.434;6.786;2023-05-19T10:03:49;4.70;;;2.10;;
36855;SDS011;22788;51.434;6.786;2023-05-19T10:06:17;5.75;;;2.33;;
36855;SDS011;22788;51.434;6.786;2023-05-19T10:08:44;3.63;;;1.90;;
36855;SDS011;22788;51.434;6.786;2023-05-19T10:11:10;5.85;;;2.15;;
36855;SDS011;22788;51.434;6.786;2023-05-19T10:13:38;4.32;;;2.03;;
36855;SDS011;22788;51.434;6.786;2023-05-19T10:16:04;4.68;;;2.03;;
36855;SDS011;22788;51.434;6.786;2023-05-19T10:18:32;2.90;;;1.67;;
36855;SDS011;22788;51.434;6.786;2023-05-19T10:20:59;4.13;;;1.98;;
36855;SDS011;22788;51.434;6.786;2023-05-19T10:23:26;6.93;;;2.10;;
36855;SDS011;22788;51.434;6.786;2023-05-19T10:25:53;7.00;;;2.30;;
36855;SDS011;22788;51.434;6.786;2023-05-19T10:28:20;6.22;;;2.58;;
36855;SDS011;22788;51.434;6.786;2023-05-19T10:30:50;3.30;;;2.15;;
36855;SDS011;22788;51.434;6.786;2023-05-19T10:33:20;4.45;;;2.00;;
36855;SDS011;22788;51.434;6.786;2023-05-19T10:36:13;6.85;;;1.90;;
36855;SDS011;22788;51.434;6.786;2023-05-19T10:38:50;4.65;;;2.00;;
36855;SDS011;22788;51.434;6.786;2023-05-19T10:41:23;2.97;;;1.77;;
36855;SDS011;22788;51.434;6.786;2023-05-19T10:43:55;6.68;;;2.00;;
36855;SDS011;22788;51.434;6.786;2023-05-19T10:46:32;4.15;;;2.20;;
36855;SDS011;22788;51.434;6.786;2023-05-19T10:48:58;6.18;;;2.00;;
36855;SDS011;22788;51.434;6.786;2023-05-19T10:51:27;4.38;;;2.00;;
36855;SDS011;22788;51.434;6.786;2023-05-19T10:53:54;2.30;;;1.75;;
36855;SDS011;22788;51.434;6.786;2023-05-19T10:56:26;4.68;;;1.83;;
36855;SDS011;22788;51.434;6.786;2023-05-19T10:58:53;3.53;;;1.73;;
36855;SDS011;22788;51.434;6.786;2023-05-19T11:01:19;4.40;;;2.20;;
36855;SDS011;22788;51.434;6.786;2023-05-19T11:03:46;2.45;;;1.30;;
36855;SDS011;22788;51.434;6.786;2023-05-19T11:06:17;4.95;;;2.13;;
36855;SDS011;22788;51.434;6.786;2023-05-19T11:08:51;4.15;;;2.55;;
36855;SDS011;22788;51.434;6.786;2023-05-19T11:11:18;2.65;;;1.77;;
36855;SDS011;22788;51.434;6.786;2023-05-19T11:13:45;6.80;;;2.08;;
36855;SDS011;22788;51.434;6.786;2023-05-19T11:16:11;4.15;;;1.88;;
36855;SDS011;22788;51.434;6.786;2023-05-19T11:18:37;5.18;;;1.90;;
36855;SDS011;22788;51.434;6.786;2023-05-19T11:21:04;3.38;;;1.92;;
36855;SDS011;22788;51.434;6.786;2023-05-19T11:23:32;4.82;;;2.00;;
36855;SDS011;22788;51.434;6.786;2023-05-19T11:25:57;3.33;;;1.90;;
36855;SDS011;22788;51.434;6.786;2023-05-19T11:28:26;6.18;;;2.47;;
36855;SDS011;22788;51.434;6.786;2023-05-19T11:30:52;3.90;;;1.60;;
36855;SDS011;22788;51.434;6.786;2023-05-19T11:33:19;5.70;;;2.42;;
36855;SDS011;22788;51.434;6.786;2023-05-19T11:35:45;5.63;;;2.03;;
36855;SDS011;22788;51.434;6.786;2023-05-19T11:38:13;4.43;;;2.05;;
36855;SDS011;22788;51.434;6.786;2023-05-19T11:40:39;4.97;;;1.63;;
36855;SDS011;22788;51.434;6.786;2023-05-19T11:43:05;4.32;;;2.30;;
36855;SDS011;22788;51.434;6.786;2023-05-19T11:45:31;5.55;;;1.98;;
36855;SDS011;22788;51.434;6.786;2023-05-19T11:47:57;5.03;;;1.95;;
36855;SDS011;22788;51.434;6.786;2023-05-19T11:50:23;5.82;;;1.63;;
36855;SDS011;22788;51.434;6.786;2023-05-19T11:52:49;3.05;;;2.05;;
36855;SDS011;22788;51.434;6.786;2023-05-19T11:55:16;6.00;;;2.00;;
36855;SDS011;22788;51.434;6.786;2023-05-19T11:57:49;2.95;;;1.65;;
36855;SDS011;22788;51.434;6.786;2023-05-19T12:00:15;3.22;;;1.75;;
36855;SDS011;22788;51.434;6.786;2023-05-19T12:02:41;4.93;;;1.90;;
36855;SDS011;22788;51.434;6.786;2023-05-19T12:05:16;5.28;;;2.08;;
36855;SDS011;22788;51.434;6.786;2023-05-19T12:07:42;3.38;;;1.77;;
36855;SDS011;22788;51.434;6.786;2023-05-19T12:10:08;2.35;;;1.67;;
36855;SDS011;22788;51.434;6.786;2023-05-19T12:12:36;3.63;;;1.73;;
36855;SDS011;22788;51.434;6.786;2023-05-19T12:15:02;5.13;;;2.10;;
36855;SDS011;22788;51.434;6.786;2023-05-19T12:17:30;9.48;;;2.33;;
36855;SDS011;22788;51.434;6.786;2023-05-19T12:19:56;6.40;;;2.20;;
36855;SDS011;22788;51.434;6.786;2023-05-19T12:22:22;4.72;;;2.15;;
36855;SDS011;22788;51.434;6.786;2023-05-19T12:24:48;3.13;;;2.00;;
36855;SDS011;22788;51.434;6.786;2023-05-19T12:27:16;3.95;;;1.90;;
36855;SDS011;22788;51.434;6.786;2023-05-19T12:29:47;3.65;;;1.67;;
36855;SDS011;22788;51.434;6.786;2023-05-19T12:32:13;6.10;;;2.50;;
36855;SDS011;22788;51.434;6.786;2023-05-19T12:34:39;4.28;;;2.10;;
36855;SDS011;22788;51.434;6.786;2023-05-19T12:37:05;4.25;;;1.80;;
36855;SDS011;22788;51.434;6.786;2023-05-19T12:39:31;5.13;;;1.85;;
36855;SDS011;22788;51.434;6.786;2023-05-19T12:42:00;12.73;;;1.80;;
36855;SDS011;22788;51.434;6.786;2023-05-19T12:44:26;3.85;;;1.80;;
36855;SDS011;22788;51.434;6.786;2023-05-19T12:46:53;6.55;;;1.98;;
36855;SDS011;22788;51.434;6.786;2023-05-19T12:49:21;4.97;;;1.70;;
36855;SDS011;22788;51.434;6.786;2023-05-19T12:51:50;6.35;;;2.10;;
36855;SDS011;22788;51.434;6.786;2023-05-19T12:54:17;5.72;;;2.60;;
36855;SDS011;22788;51.434;6.786;2023-05-19T12:56:48;3.47;;;1.70;;
36855;SDS011;22788;51.434;6.786;2023-05-19T12:59:19;3.88;;;2.03;;
36855;SDS011;22788;51.434;6.786;2023-05-19T13:01:57;6.07;;;1.83;;
36855;SDS011;22788;51.434;6.786;2023-05-19T13:04:23;4.35;;;1.98;;
36855;SDS011;22788;51.434;6.786;2023-05-19T13:06:49;5.60;;;2.33;;
36855;SDS011;22788;51.434;6.786;2023-05-19T13:09:15;12.38;;;2.22;;
36855;SDS011;22788;51.434;6.786;2023-05-19T13:11:40;4.90;;;2.00;;
36855;SDS011;22788;51.434;6.786;2023-05-19T13:14:06;3.97;;;1.90;;
36855;SDS011;22788;51.434;6.786;2023-05-19T13:16:31;3.10;;;1.60;;
36855;SDS011;22788;51.434;6.786;2023-05-19T13:18:59;5.40;;;2.22;;
36855;SDS011;22788;51.434;6.786;2023-05-19T13:21:25;3.20;;;2.05;;
36855;SDS011;22788;51.434;6.786;2023-05-19T13:23:51;4.85;;;2.17;;
36855;SDS011;22788;51.434;6.786;2023-05-19T13:26:17;7.07;;;2.20;;
36855;SDS011;22788;51.434;6.786;2023-05-19T13:28:42;3.25;;;1.80;;
36855;SDS011;22788;51.434;6.786;2023-05-19T13:31:08;4.78;;;2.10;;
36855;SDS011;22788;51.434;6.786;2023-05-19T13:33:34;4.63;;;2.05;;
36855;SDS011;22788;51.434;6.786;2023-05-19T13:36:01;4.78;;;2.22;;
36855;SDS011;22788;51.434;6.786;2023-05-19T13:38:26;2.90;;;1.90;;
36855;SDS011;22788;51.434;6.786;2023-05-19T13:40:52;3.85;;;1.85;;
36855;SDS011;22788;51.434;6.786;2023-05-19T13:43:17;4.95;;;1.98;;
36855;SDS011;22788;51.434;6.786;2023-05-19T13:45:43;2.55;;;2.03;;
36855;SDS011;22788;51.434;6.786;2023-05-19T13:48:09;4.13;;;2.10;;
36855;SDS011;22788;51.434;6.786;2023-05-19T13:50:34;3.75;;;1.85;;
36855;SDS011;22788;51.434;6.786;2023-05-19T13:53:01;3.38;;;2.03;;
36855;SDS011;22788;51.434;6.786;2023-05-19T13:55:27;4.97;;;2.38;;
36855;SDS011;22788;51.434;6.786;2023-05-19T13:57:53;4.45;;;2.15;;
36855;SDS011;22788;51.434;6.786;2023-05-19T14:00:18;5.43;;;2.25;;
36855;SDS011;22788;51.434;6.786;2023-05-19T14:02:44;6.22;;;2.13;;
36855;SDS011;22788;51.434;6.786;2023-05-19T14:05:10;3.83;;;1.85;;
36855;SDS011;22788;51.434;6.786;2023-05-19T14:07:35;3.83;;;2.20;;
36855;SDS011;22788;51.434;6.786;2023-05-19T14:10:02;5.20;;;1.90;;
36855;SDS011;22788;51.434;6.786;2023-05-19T14:12:28;5.28;;;2.20;;
36855;SDS011;22788;51.434;6.786;2023-05-19T14:14:54;2.65;;;2.00;;
36855;SDS011;22788;51.434;6.786;2023-05-19T14:17:20;4.28;;;1.92;;
36855;SDS011;22788;51.434;6.786;2023-05-19T14:19:45;3.78;;;2.00;;
36855;SDS011;22788;51.434;6.786;2023-05-19T14:22:11;3.13;;;1.88;;
36855;SDS011;22788;51.434;6.786;2023-05-19T14:24:36;4.95;;;2.30;;
36855;SDS011;22788;51.434;6.786;2023-05-19T14:27:03;4.35;;;1.98;;
36855;SDS011;22788;51.434;6.786;2023-05-19T14:29:29;3.85;;;2.05;;
36855;SDS011;22788;51.434;6.786;2023-05-19T14:31:55;3.92;;;1.50;;
36855;SDS011;22788;51.434;6.786;2023-05-19T14:34:20;3.75;;;1.80;;
36855;SDS011;22788;51.434;6.786;2023-05-19T14:36:46;2.80;;;2.15;;
36855;SDS011;22788;51.434;6.786;2023-05-19T14:39:12;2.70;;;1.92;;
36855;SDS011;22788;51.434;6.786;2023-05-19T14:41:38;4.55;;;1.98;;
36855;SDS011;22788;51.434;6.786;2023-05-19T14:44:05;4.00;;;2.17;;
36855;SDS011;22788;51.434;6.786;2023-05-19T14:46:31;7.03;;;2.58;;